createdAt,value
2023-03-16T00:00:48.452Z,55.47
2023-03-16T00:03:19.348Z,56.01
2023-03-16T00:05:47.409Z,55.86
2023-03-16T00:08:16.717Z,56.62
2023-03-16T00:10:47.241Z,56.88
2023-03-16T00:13:15.542Z,57.11
2023-03-16T00:15:50.173Z,56.90
2023-03-16T00:18:17.308Z,55.64
2023-03-16T00:20:44.293Z,56.58
2023-03-16T00:23:11.963Z,56.80
2023-03-16T00:25:38.779Z,57.03
2023-03-16T00:28:05.648Z,57.46
2023-03-16T00:30:32.842Z,57.75
2023-03-16T00:32:59.825Z,58.07
2023-03-16T00:35:26.848Z,57.80
2023-03-16T00:37:57.401Z,58.30
2023-03-16T00:40:24.816Z,58.12
2023-03-16T00:42:51.745Z,58.40
2023-03-16T00:45:18.618Z,58.44
2023-03-16T00:47:45.545Z,59.13
2023-03-16T00:50:12.408Z,59.48
2023-03-16T00:52:39.297Z,59.23
2023-03-16T00:55:06.624Z,59.62
2023-03-16T00:57:33.503Z,60.36
2023-03-16T01:00:02.313Z,61.31
2023-03-16T01:02:29.850Z,60.84
2023-03-16T01:04:56.842Z,60.52
2023-03-16T01:07:23.662Z,60.81
2023-03-16T01:09:50.602Z,60.78
2023-03-16T01:12:19.683Z,60.90
2023-03-16T01:14:47.227Z,60.80
2023-03-16T01:17:15.968Z,61.60
2023-03-16T01:19:44.654Z,61.04
2023-03-16T01:22:12.277Z,60.91
2023-03-16T01:24:40.052Z,61.41
2023-03-16T01:27:07.896Z,61.44
2023-03-16T01:29:35.299Z,61.93
2023-03-16T01:32:04.050Z,61.77
2023-03-16T01:34:32.062Z,62.23
2023-03-16T01:36:59.049Z,61.85
2023-03-16T01:39:25.985Z,61.54
2023-03-16T01:41:53.524Z,62.14
2023-03-16T01:44:24.652Z,61.80
2023-03-16T01:46:51.538Z,61.85
2023-03-16T01:49:29.555Z,61.95
2023-03-16T01:52:04.794Z,62.72
2023-03-16T01:54:34.928Z,62.82
2023-03-16T01:57:08.765Z,62.55
2023-03-16T01:59:41.582Z,62.80
2023-03-16T02:02:09.755Z,62.76
2023-03-16T02:04:45.407Z,63.05
2023-03-16T02:07:16.986Z,62.96
2023-03-16T02:09:46.636Z,63.36
2023-03-16T02:12:18.951Z,62.91
2023-03-16T02:14:47.297Z,63.63
2023-03-16T02:17:16.888Z,63.93
2023-03-16T02:20:08.864Z,63.77
2023-03-16T02:22:43.907Z,64.19
2023-03-16T02:25:13.039Z,64.69
2023-03-16T02:28:04.699Z,65.63
2023-03-16T02:30:32.315Z,65.88
2023-03-16T02:32:59.806Z,66.10
2023-03-16T02:35:26.680Z,65.90
2023-03-16T02:37:54.130Z,65.86
2023-03-16T02:40:31.062Z,66.05
2023-03-16T02:43:05.364Z,66.61
2023-03-16T02:45:46.202Z,66.89
2023-03-16T02:48:28.466Z,66.87
2023-03-16T02:50:55.597Z,67.15
2023-03-16T02:53:22.910Z,67.49
2023-03-16T02:55:49.948Z,67.71
2023-03-16T02:58:17.496Z,67.88
2023-03-16T03:00:47.282Z,67.77
2023-03-16T03:03:14.386Z,67.80
2023-03-16T03:05:41.419Z,67.75
2023-03-16T03:08:08.379Z,68.53
2023-03-16T03:10:35.269Z,68.62
2023-03-16T03:13:02.151Z,69.43
2023-03-16T03:15:29.166Z,69.25
2023-03-16T03:17:56.040Z,69.41
2023-03-16T03:20:25.925Z,69.42
2023-03-16T03:22:53.262Z,69.65
2023-03-16T03:25:21.975Z,70.45
2023-03-16T03:27:50.324Z,69.86
2023-03-16T03:30:20.402Z,70.16
2023-03-16T03:32:47.476Z,70.00
2023-03-16T03:35:15.980Z,70.12
2023-03-16T03:37:44.390Z,70.00
2023-03-16T03:40:14.374Z,70.01
2023-03-16T03:42:42.120Z,70.51
2023-03-16T03:45:12.957Z,70.81
2023-03-16T03:47:41.460Z,70.64
2023-03-16T03:50:10.368Z,70.80
2023-03-16T03:52:37.432Z,71.04
2023-03-16T03:55:04.552Z,71.03
2023-03-16T03:57:31.675Z,71.17
2023-03-16T03:59:58.650Z,71.07
2023-03-16T04:02:25.668Z,70.99
2023-03-16T04:04:52.664Z,71.28
2023-03-16T04:07:19.429Z,71.33
2023-03-16T04:09:46.299Z,71.17
2023-03-16T04:12:13.638Z,71.67
2023-03-16T04:14:40.506Z,71.79
2023-03-16T04:17:07.540Z,71.69
2023-03-16T04:19:34.624Z,72.07
2023-03-16T04:22:01.552Z,71.75
2023-03-16T04:24:28.408Z,71.88
2023-03-16T04:26:55.388Z,72.06
2023-03-16T04:29:22.204Z,72.06
2023-03-16T04:31:49.032Z,72.14
2023-03-16T04:34:15.819Z,72.64
2023-03-16T04:36:42.686Z,72.42
2023-03-16T04:39:10.638Z,73.16
2023-03-16T04:41:37.782Z,73.34
2023-03-16T04:44:04.863Z,73.15
2023-03-16T04:46:31.932Z,73.41
2023-03-16T04:48:59.241Z,73.21
2023-03-16T04:51:27.172Z,72.85
2023-03-16T04:53:54.424Z,72.68
2023-03-16T04:56:21.729Z,73.09
2023-03-16T04:58:50.142Z,72.83
2023-03-16T05:01:18.428Z,73.35
2023-03-16T05:03:45.497Z,73.10
2023-03-16T05:06:12.920Z,73.08
2023-03-16T05:08:40.582Z,73.23
2023-03-16T05:11:07.586Z,73.09
2023-03-16T05:13:34.527Z,73.43
2023-03-16T05:16:01.980Z,73.31
2023-03-16T05:18:29.026Z,73.78
2023-03-16T05:20:57.061Z,74.06
2023-03-16T05:23:24.477Z,73.70
2023-03-16T05:25:51.383Z,73.57
2023-03-16T05:28:19.293Z,73.11
2023-03-16T05:30:46.302Z,73.29
2023-03-16T05:33:14.429Z,72.92
2023-03-16T05:35:41.553Z,73.23
2023-03-16T05:38:10.006Z,72.99
2023-03-16T05:40:37.429Z,72.93
2023-03-16T05:43:04.626Z,72.96
2023-03-16T05:45:32.467Z,73.04
2023-03-16T05:47:59.670Z,72.57
2023-03-16T05:50:26.897Z,72.48
2023-03-16T05:52:54.312Z,72.60
2023-03-16T05:55:21.097Z,72.20
2023-03-16T05:57:48.051Z,72.34
2023-03-16T06:00:16.568Z,72.30
2023-03-16T06:02:48.550Z,70.59
2023-03-16T06:05:17.085Z,70.33
2023-03-16T06:07:44.578Z,69.24
2023-03-16T06:10:12.822Z,67.50
2023-03-16T06:12:40.034Z,66.31
2023-03-16T06:15:08.450Z,65.30
2023-03-16T06:17:36.388Z,64.95
2023-03-16T06:20:10.434Z,63.15
2023-03-16T06:22:38.828Z,62.90
2023-03-16T06:25:06.415Z,62.20
2023-03-16T06:27:33.309Z,61.83
2023-03-16T06:30:00.195Z,61.71
2023-03-16T06:32:27.043Z,60.66
2023-03-16T06:34:53.985Z,60.05
2023-03-16T06:37:21.818Z,59.50
2023-03-16T06:39:48.678Z,58.27
2023-03-16T06:42:15.834Z,58.87
2023-03-16T06:44:42.785Z,57.80
2023-03-16T06:47:10.512Z,57.36
2023-03-16T06:49:37.549Z,57.59
2023-03-16T06:52:04.959Z,57.42
2023-03-16T06:54:35.378Z,55.80
2023-03-16T06:57:02.195Z,56.24
2023-03-16T06:59:29.453Z,55.71
2023-03-16T07:01:57.304Z,54.69
2023-03-16T07:04:24.352Z,54.65
2023-03-16T07:06:51.861Z,53.83
2023-03-16T07:09:18.910Z,53.59
2023-03-16T07:11:46.004Z,52.48
2023-03-16T07:14:13.206Z,51.61
2023-03-16T07:16:40.111Z,52.11
2023-03-16T07:19:06.947Z,51.39
2023-03-16T07:21:39.412Z,51.49
2023-03-16T07:24:08.070Z,50.14
2023-03-16T07:26:35.052Z,49.46
2023-03-16T07:29:01.983Z,49.28
2023-03-16T07:31:28.923Z,48.45
2023-03-16T07:33:57.514Z,47.96
2023-03-16T07:36:24.772Z,47.98
2023-03-16T07:38:51.684Z,48.05
2023-03-16T07:41:19.356Z,46.77
2023-03-16T07:43:46.204Z,46.50
2023-03-16T07:46:13.921Z,46.56
2023-03-16T07:48:42.705Z,46.86
2023-03-16T07:51:11.711Z,45.63
2023-03-16T07:53:39.833Z,45.65
2023-03-16T07:56:07.823Z,46.09
2023-03-16T07:58:34.782Z,45.08
2023-03-16T08:01:01.743Z,44.13
2023-03-16T08:03:29.982Z,43.89
2023-03-16T08:05:57.095Z,43.35
2023-03-16T08:08:24.022Z,42.64
2023-03-16T08:10:53.568Z,42.58
2023-03-16T08:13:22.500Z,41.21
2023-03-16T08:15:56.036Z,41.30
2023-03-16T08:18:23.950Z,40.73
2023-03-16T08:20:50.896Z,40.58
2023-03-16T08:23:18.554Z,39.40
2023-03-16T08:25:46.229Z,38.23
2023-03-16T08:28:13.155Z,39.18
2023-03-16T08:30:51.236Z,38.64
2023-03-16T08:33:23.023Z,37.69
2023-03-16T08:35:50.882Z,37.68
2023-03-16T08:38:19.261Z,37.85
2023-03-16T08:40:48.693Z,37.40
2023-03-16T08:43:17.276Z,37.03
2023-03-16T08:45:48.530Z,37.77
2023-03-16T08:48:15.725Z,36.33
2023-03-16T08:50:44.212Z,35.43
2023-03-16T08:53:13.711Z,35.13
2023-03-16T08:55:41.870Z,35.71
2023-03-16T08:58:10.766Z,34.36
2023-03-16T09:00:38.991Z,35.17
2023-03-16T09:03:06.874Z,34.66
2023-03-16T09:05:34.233Z,33.11
2023-03-16T09:08:01.655Z,35.54
2023-03-16T09:10:29.061Z,35.08
2023-03-16T09:12:56.791Z,35.16
2023-03-16T09:15:23.810Z,35.37
2023-03-16T09:17:51.176Z,34.42
2023-03-16T09:20:34.836Z,33.51
2023-03-16T09:23:01.895Z,33.02
2023-03-16T09:25:29.138Z,31.94
2023-03-16T09:27:56.362Z,30.90
2023-03-16T09:30:23.392Z,30.81
2023-03-16T09:32:50.892Z,28.90
2023-03-16T09:35:18.141Z,27.79
2023-03-16T09:38:01.058Z,28.42
2023-03-16T09:40:33.498Z,27.97
2023-03-16T09:43:15.527Z,28.25
2023-03-16T09:45:51.623Z,27.03
2023-03-16T09:48:21.548Z,26.69
2023-03-16T09:50:49.836Z,27.28
2023-03-16T09:53:29.449Z,26.10
2023-03-16T09:56:04.451Z,25.49
2023-03-16T09:58:34.660Z,24.96
2023-03-16T10:01:12.225Z,24.73
2023-03-16T10:04:11.651Z,24.42
2023-03-16T10:06:49.590Z,25.20
2023-03-16T10:09:47.739Z,24.03
2023-03-16T10:12:16.045Z,24.37
2023-03-16T10:14:54.638Z,24.86
2023-03-16T10:17:30.959Z,24.46
2023-03-16T10:20:02.796Z,23.65
2023-03-16T10:22:34.953Z,23.63
2023-03-16T10:25:17.119Z,23.93
2023-03-16T10:27:46.072Z,23.14
2023-03-16T10:30:25.966Z,21.37
2023-03-16T10:32:53.388Z,21.90
2023-03-16T10:35:48.910Z,21.26
2023-03-16T10:38:41.068Z,22.54
2023-03-16T10:41:25.887Z,22.50
2023-03-16T10:43:58.698Z,21.52
2023-03-16T10:46:28.891Z,22.09
2023-03-16T10:49:00.918Z,22.07
2023-03-16T10:51:31.063Z,20.43
2023-03-16T10:54:28.420Z,20.22
2023-03-16T10:56:56.757Z,19.59
2023-03-16T10:59:35.243Z,20.68
2023-03-16T11:02:14.344Z,20.09
2023-03-16T11:04:41.976Z,18.38
2023-03-16T11:07:15.747Z,18.43
2023-03-16T11:09:44.890Z,19.63
2023-03-16T11:12:14.254Z,17.89
2023-03-16T11:14:49.135Z,18.73
2023-03-16T11:17:44.666Z,19.35
2023-03-16T11:20:33.624Z,17.63
2023-03-16T11:23:01.612Z,18.18
2023-03-16T11:25:41.472Z,19.03
2023-03-16T11:28:38.739Z,17.37
2023-03-16T11:31:35.324Z,17.67
2023-03-16T11:34:02.918Z,16.70
2023-03-16T11:36:45.745Z,17.83
2023-03-16T11:39:15.651Z,17.33
2023-03-16T11:41:59.002Z,16.99
2023-03-16T11:44:31.733Z,16.59
2023-03-16T11:47:20.774Z,17.59
2023-03-16T11:49:53.356Z,16.89
2023-03-16T11:52:38.671Z,17.53
2023-03-16T11:55:24.904Z,17.41
2023-03-16T11:58:08.123Z,16.28
2023-03-16T12:01:08.807Z,16.73
2023-03-16T12:03:36.676Z,16.30
2023-03-16T12:06:13.579Z,16.91
2023-03-16T12:09:16.276Z,17.15
2023-03-16T12:11:54.415Z,16.55
2023-03-16T12:14:30.341Z,16.21
2023-03-16T12:17:03.436Z,16.92
2023-03-16T12:19:52.200Z,16.67
2023-03-16T12:22:44.554Z,16.39
2023-03-16T12:25:22.289Z,16.37
2023-03-16T12:27:55.992Z,15.86
2023-03-16T12:30:48.007Z,16.05
2023-03-16T12:33:17.873Z,16.24
2023-03-16T12:36:07.023Z,16.40
2023-03-16T12:38:53.593Z,15.61
2023-03-16T12:41:44.852Z,14.92
2023-03-16T12:44:21.935Z,14.96
2023-03-16T12:46:57.782Z,15.38
2023-03-16T12:49:26.513Z,14.94
2023-03-16T12:52:05.947Z,16.22
2023-03-16T12:54:33.565Z,15.13
2023-03-16T12:57:10.971Z,14.92
2023-03-16T13:00:01.037Z,15.77
2023-03-16T13:02:34.783Z,15.40
2023-03-16T13:05:09.930Z,15.55
2023-03-16T13:07:39.300Z,16.20
2023-03-16T13:10:13.901Z,14.38
2023-03-16T13:12:43.746Z,14.51
2023-03-16T13:15:25.890Z,14.50
2023-03-16T13:18:14.944Z,14.43
2023-03-16T13:20:48.075Z,14.00
2023-03-16T13:23:18.446Z,15.19
2023-03-16T13:26:18.164Z,14.55
2023-03-16T13:28:51.656Z,14.51
2023-03-16T13:31:37.394Z,14.54
2023-03-16T13:34:08.469Z,14.77
2023-03-16T13:36:37.158Z,14.98
2023-03-16T13:39:14.020Z,14.64
2023-03-16T13:41:43.397Z,15.17
2023-03-16T13:44:18.915Z,14.89
2023-03-16T13:46:49.759Z,15.33
2023-03-16T13:49:18.225Z,15.56
2023-03-16T13:51:47.392Z,16.53
2023-03-16T13:54:32.525Z,15.83
2023-03-16T13:57:07.269Z,15.91
2023-03-16T13:59:34.333Z,15.52
2023-03-16T14:02:02.205Z,15.47
2023-03-16T14:04:31.932Z,14.75
2023-03-16T14:07:03.819Z,14.74
2023-03-16T14:09:35.395Z,14.73
2023-03-16T14:12:03.832Z,15.64
2023-03-16T14:14:37.775Z,14.31
2023-03-16T14:17:15.095Z,14.36
2023-03-16T14:19:50.579Z,13.69
2023-03-16T14:22:23.504Z,14.38
2023-03-16T14:24:59.095Z,15.20
2023-03-16T14:27:41.077Z,15.09
2023-03-16T14:30:14.945Z,15.37
2023-03-16T14:32:42.234Z,15.41
2023-03-16T14:35:20.620Z,15.95
2023-03-16T14:37:49.494Z,16.77
2023-03-16T14:40:28.596Z,16.73
2023-03-16T14:42:58.747Z,16.71
2023-03-16T14:45:36.628Z,16.63
2023-03-16T14:48:08.684Z,16.73
2023-03-16T14:50:35.781Z,17.53
2023-03-16T14:53:04.371Z,16.44
2023-03-16T14:55:32.325Z,17.78
2023-03-16T14:57:59.253Z,17.29
2023-03-16T15:00:26.631Z,17.68
2023-03-16T15:03:03.263Z,18.20
2023-03-16T15:05:37.542Z,18.25
2023-03-16T15:08:10.870Z,19.72
2023-03-16T15:10:38.275Z,18.78
2023-03-16T15:13:17.031Z,19.70
2023-03-16T15:15:44.153Z,19.20
2023-03-16T15:18:11.104Z,19.18
2023-03-16T15:20:44.563Z,18.41
2023-03-16T15:23:15.807Z,19.36
2023-03-16T15:25:48.186Z,19.99
2023-03-16T15:28:17.560Z,19.79
2023-03-16T15:30:46.861Z,18.78
2023-03-16T15:33:13.970Z,19.44
2023-03-16T15:35:41.657Z,20.00
2023-03-16T15:38:28.066Z,19.28
2023-03-16T15:40:55.457Z,19.83
2023-03-16T15:43:24.836Z,20.11
2023-03-16T15:45:54.991Z,19.37
2023-03-16T15:48:24.691Z,19.29
2023-03-16T15:51:23.125Z,20.36
2023-03-16T15:53:53.440Z,20.41
2023-03-16T15:56:29.968Z,20.48
2023-03-16T15:59:01.304Z,21.38
2023-03-16T16:01:34.960Z,21.21
2023-03-16T16:04:02.047Z,21.20
2023-03-16T16:06:30.494Z,21.47
2023-03-16T16:08:57.758Z,21.76
2023-03-16T16:11:27.169Z,21.82
2023-03-16T16:13:58.209Z,22.55
2023-03-16T16:16:31.073Z,22.64
2023-03-16T16:18:58.444Z,22.89
2023-03-16T16:21:31.673Z,23.16
2023-03-16T16:23:58.725Z,22.71
2023-03-16T16:26:47.053Z,24.07
2023-03-16T16:29:24.216Z,24.71
2023-03-16T16:31:54.408Z,24.62
2023-03-16T16:34:24.678Z,23.97
2023-03-16T16:36:52.228Z,25.72
2023-03-16T16:39:19.380Z,25.42
2023-03-16T16:41:48.229Z,26.32
2023-03-16T16:44:24.381Z,25.57
2023-03-16T16:46:55.326Z,25.70
2023-03-16T16:49:31.225Z,25.85
2023-03-16T16:51:59.768Z,26.54
2023-03-16T16:54:31.742Z,27.41
2023-03-16T16:57:00.182Z,27.20
2023-03-16T16:59:32.220Z,27.92
2023-03-16T17:02:01.879Z,26.89
2023-03-16T17:04:29.957Z,27.96
2023-03-16T17:07:00.877Z,28.84
2023-03-16T17:09:29.259Z,27.87
2023-03-16T17:11:59.574Z,28.37
2023-03-16T17:14:31.461Z,28.10
2023-03-16T17:17:09.889Z,29.47
2023-03-16T17:19:37.342Z,29.22
2023-03-16T17:22:21.303Z,30.21
2023-03-16T17:24:51.176Z,29.80
2023-03-16T17:27:24.899Z,30.91
2023-03-16T17:29:53.624Z,32.67
2023-03-16T17:32:23.286Z,31.01
2023-03-16T17:34:52.663Z,30.55
2023-03-16T17:37:22.238Z,30.74
2023-03-16T17:39:51.624Z,31.69
2023-03-16T17:42:22.818Z,32.34
2023-03-16T17:44:53.023Z,33.92
2023-03-16T17:47:25.624Z,34.50
2023-03-16T17:49:53.440Z,33.74
2023-03-16T17:52:27.146Z,34.18
2023-03-16T17:54:55.616Z,34.40
2023-03-16T17:57:29.321Z,35.28
2023-03-16T17:59:57.818Z,35.33
2023-03-16T18:03:03.423Z,35.98
2023-03-16T18:05:37.237Z,38.03
2023-03-16T18:08:16.385Z,37.97
2023-03-16T18:10:46.577Z,37.25
2023-03-16T18:13:37.482Z,38.00
2023-03-16T18:16:06.986Z,38.09
2023-03-16T18:18:38.931Z,37.94
2023-03-16T18:21:07.005Z,38.36
2023-03-16T18:23:37.209Z,39.04
2023-03-16T18:26:08.456Z,38.83
2023-03-16T18:28:36.593Z,38.96
2023-03-16T18:31:06.243Z,38.65
2023-03-16T18:33:40.417Z,37.47
2023-03-16T18:36:16.760Z,38.16
2023-03-16T18:38:52.232Z,38.95
2023-03-16T18:41:24.817Z,39.69
2023-03-16T18:43:58.020Z,40.30
2023-03-16T18:46:37.087Z,40.40
2023-03-16T18:49:14.167Z,40.57
2023-03-16T18:51:44.236Z,39.58
2023-03-16T18:54:32.972Z,39.69
2023-03-16T18:57:01.064Z,39.91
2023-03-16T18:59:28.949Z,39.79
2023-03-16T19:01:59.178Z,41.79
2023-03-16T19:04:31.405Z,43.71
2023-03-16T19:06:59.897Z,42.82
2023-03-16T19:09:32.637Z,42.65
2023-03-16T19:12:00.164Z,42.53
2023-03-16T19:14:33.860Z,43.32
2023-03-16T19:17:02.380Z,43.42
2023-03-16T19:19:31.803Z,42.70
2023-03-16T19:22:13.444Z,44.42
2023-03-16T19:24:52.639Z,45.02
2023-03-16T19:27:36.149Z,47.08
2023-03-16T19:30:05.700Z,44.53
2023-03-16T19:32:33.878Z,45.50
2023-03-16T19:35:02.158Z,44.36
2023-03-16T19:37:31.169Z,44.09
2023-03-16T19:40:01.065Z,44.93
2023-03-16T19:42:36.959Z,46.04
2023-03-16T19:45:07.613Z,46.63
2023-03-16T19:47:38.671Z,47.11
2023-03-16T19:50:14.990Z,46.50
2023-03-16T19:52:43.381Z,48.02
2023-03-16T19:55:23.251Z,46.41
2023-03-16T19:58:08.287Z,47.32
2023-03-16T20:00:36.533Z,47.13
2023-03-16T20:03:04.591Z,48.52
2023-03-16T20:05:34.382Z,49.24
2023-03-16T20:08:04.634Z,49.18
2023-03-16T20:10:33.357Z,52.26
2023-03-16T20:13:01.910Z,50.99
2023-03-16T20:15:34.502Z,48.86
2023-03-16T20:18:04.092Z,50.94
2023-03-16T20:20:38.185Z,50.45
2023-03-16T20:23:23.137Z,51.00
2023-03-16T20:25:52.413Z,51.26
2023-03-16T20:28:33.713Z,51.50
2023-03-16T20:31:03.195Z,50.88
2023-03-16T20:33:32.632Z,51.83
2023-03-16T20:36:01.545Z,51.70
2023-03-16T20:38:29.143Z,52.77
2023-03-16T20:40:58.564Z,52.32
2023-03-16T20:43:30.979Z,52.13
2023-03-16T20:46:02.651Z,54.26
2023-03-16T20:48:31.748Z,52.44
2023-03-16T20:51:00.734Z,53.61
2023-03-16T20:53:29.806Z,54.21
2023-03-16T20:55:57.565Z,54.64
2023-03-16T20:58:28.638Z,53.84
2023-03-16T21:00:58.343Z,53.62
2023-03-16T21:03:29.086Z,53.24
2023-03-16T21:05:59.799Z,52.49
2023-03-16T21:08:28.155Z,52.19
2023-03-16T21:10:57.363Z,53.42
2023-03-16T21:13:34.608Z,52.41
2023-03-16T21:16:03.697Z,53.30
2023-03-16T21:18:31.467Z,52.71
2023-03-16T21:20:58.926Z,52.66
2023-03-16T21:23:29.039Z,52.44
2023-03-16T21:25:59.669Z,52.26
2023-03-16T21:28:29.787Z,53.60
2023-03-16T21:30:58.074Z,53.31
2023-03-16T21:33:37.524Z,54.11
2023-03-16T21:36:08.301Z,54.65
2023-03-16T21:38:35.628Z,54.31
2023-03-16T21:41:02.801Z,54.83
2023-03-16T21:43:31.274Z,54.89
2023-03-16T21:45:59.630Z,54.71
2023-03-16T21:48:37.078Z,56.38
2023-03-16T21:51:16.771Z,56.36
2023-03-16T21:53:44.021Z,56.62
2023-03-16T21:56:15.604Z,56.83
2023-03-16T21:58:44.179Z,57.39
2023-03-16T22:01:24.861Z,57.41
2023-03-16T22:03:54.860Z,58.24
2023-03-16T22:06:23.244Z,59.44
2023-03-16T22:08:51.412Z,59.36
2023-03-16T22:11:29.622Z,59.31
2023-03-16T22:13:58.970Z,59.48
2023-03-16T22:16:30.051Z,59.63
2023-03-16T22:18:58.178Z,59.76
2023-03-16T22:21:28.868Z,59.41
2023-03-16T22:23:57.755Z,59.51
2023-03-16T22:26:25.453Z,59.74
2023-03-16T22:28:53.141Z,60.68
2023-03-16T22:31:29.707Z,60.18
2023-03-16T22:33:57.629Z,61.85
2023-03-16T22:36:24.902Z,61.38
2023-03-16T22:39:12.817Z,60.90
2023-03-16T22:41:39.653Z,60.73
2023-03-16T22:44:22.616Z,60.94
2023-03-16T22:46:50.858Z,61.55
2023-03-16T22:49:27.172Z,62.52
2023-03-16T22:51:57.437Z,62.94
2023-03-16T22:54:29.156Z,62.49
2023-03-16T22:56:56.937Z,63.06
2023-03-16T22:59:26.491Z,62.44
2023-03-16T23:01:53.403Z,63.52
2023-03-16T23:04:23.354Z,61.94
2023-03-16T23:06:53.424Z,62.37
2023-03-16T23:09:21.933Z,62.43
2023-03-16T23:11:54.258Z,63.03
2023-03-16T23:14:24.308Z,61.94
2023-03-16T23:16:52.814Z,63.78
2023-03-16T23:19:26.137Z,64.44
2023-03-16T23:21:56.192Z,63.13
2023-03-16T23:24:23.751Z,62.96
2023-03-16T23:26:52.145Z,62.77
2023-03-16T23:29:20.859Z,63.26
2023-03-16T23:31:49.572Z,63.52
2023-03-16T23:34:19.814Z,64.15
2023-03-16T23:36:46.732Z,64.00
2023-03-16T23:39:13.842Z,64.44
2023-03-16T23:41:44.173Z,64.36
2023-03-16T23:44:21.428Z,64.85
2023-03-16T23:46:48.303Z,64.06
2023-03-16T23:49:21.604Z,65.17
2023-03-16T23:51:48.629Z,65.85
2023-03-16T23:54:19.140Z,65.29
2023-03-16T23:56:46.376Z,65.50
2023-03-16T23:59:13.890Z,65.63
